KDPG/DPG METAR and TAF weather

Enter ICAO airport designator
Station Type Date Time Source
KDPG METAR 2020/07/08 22:55 UTC NOAA

KDPG 082255Z 34005KT 40SM FEW120 33/M03 A2995 RMK SLP084 T03301029 LAST


Station Type Date Time Source
KDPG Decoded METAR 2020/07/08 22:55 UTC NOAA

Dugway Proving Grounds, UT, United States (KDPG) 40-10N 112-56W 1325M
Jul 08, 2020 - 06:55 PM EDT / 2020.07.08 2255 UTC
Wind: from the NNW (340 degrees) at 6 MPH (5 KT):0
Visibility: 40 mile(s):0
Sky conditions: mostly clear
Temperature: 91.4 F (33.0 C)
Dew Point: 26.8 F (-2.9 C)
Relative Humidity: 9%
Pressure (altimeter): 29.95 in. Hg (1014 hPa)
ob: KDPG 082255Z 34005KT 40SM FEW120 33/M03 A2995 RMK SLP084 T03301029 LAST
cycle: 23

Station Type Date Time Source
KDPG TAF UTC NOAA

Error!

Example: see airport list